Montevallo, AL

10:14 PM CST on December 05, 2016 (GMT -0600)
Lhoist Montevallo | | Change Station

Elev 479 ft 33.09 °N, 86.81 °W | Updated 60 seconds ago

Overcast
Overcast
57.8 °F
Feels Like 57.8 °F
N
5.0
Wind Variable Wind from ESE
Gusts 9.0 mph

Today
High -- | Low -- °F
--% Chance of Precip.
Yesterday
High -- | Low -- °F
Precip. -- in
Pressure 29.76 in
Visibility 10.0 miles
Clouds Overcast 400 ft
Dew Point 56 °F
Humidity 96%
Rainfall 0.76 in
Snow Depth Not available.
6:36 AM 4:40 PM
Waxing Crescent, 37% visible
SPECI KEET 060400Z AUTO VRB05KT 10SM OVC004 13/13 A2976 RMK AO2 T01330133
Pressure 29.76 in
Visibility 10.0 miles
Clouds Overcast 400 ft
Dew Point 56 °F
Humidity 96%
Rainfall 0.76 in
Snow Depth Not available.
6:36 AM 4:40 PM
Waxing Crescent, 37% visible
SPECI KEET 060400Z AUTO VRB05KT 10SM OVC004 13/13 A2976 RMK AO2 T01330133

10-Day Weather Forecast

Almanac

Astronomy

Dec. 05, 2016 Rise Set
Actual Time
Civil Twilight
Nautical Twilight
Astronomical Twilight
Moon
Length of Visible Light
Length of Day
Tomorrow will be .
, % of the Moon is Illuminated

Today's Extremes

State Highs State Lows

Community

WunderPhotos

Upload Photos

1,955,917 photos uploaded!

WunderBlog® & News

Nearby

Air Quality

  Air Quality AQ Index Pollutant
Not available.

Snow Depth

Station Depth Elevation

Earthquake Activity

City Distance Mag. Time & Date
Minimum magnitude displayed is 2.5.

Coastal Water Temperatures

Place Temperature

Stations

Nearby Weather Stations

Station Location Temp. Windchill Dew Point Humidity Wind Precip. Elev Updated Type
                   

Watches & Warnings

There are currently no watches in effect.